Estación Meteorológica Peña el Pijo (Robertgarden) [ 09/22/18 23:05:18 CEST ]

Fecha Hora Presion(HPa) Temp (°C) Humedad % Rocio (°C) Viento ( m/s) Direccion Lluvia 1Hora(mm) Lluvia 24H(mm) LLuvia Total(mm)
2018-Jul-12 01:01:44 1009.600 16.4 54 7.0         269.36
2018-Jul-12 02:01:42 1009.600 15.4 53 5.8         269.36
2018-Jul-12 03:01:58 1009.300 15.4 47 4.1         269.36
2018-Jul-12 04:02:26 1009.200 14.8 43 2.3         269.36
2018-Jul-12 05:02:08 1009.100 14.6 38 0.4         269.36
2018-Jul-12 06:02:09 1009.200 13.0 41 0.0         269.36
2018-Jul-12 07:01:39 1009.200 11.8 48 1.1         269.36
2018-Jul-12 08:01:38 1009.500 13.6 53 4.2         269.36
2018-Jul-12 09:01:54 1009.700 20.7 45 8.3         269.36
2018-Jul-12 10:01:41 1009.700 26.3 38 10.6         269.36
2018-Jul-12 11:01:40 1009.600 30.1 29 10.1         269.36
2018-Jul-12 12:01:37 1009.500 34.0 20 7.9         269.36
2018-Jul-12 13:01:36 1009.200 33.3 15 2.5         269.36
2018-Jul-12 14:01:36 1008.900 34.4 14 2.3         269.36
2018-Jul-12 15:01:47 1008.300 34.9 13 1.8         269.36
2018-Jul-12 16:01:52 1008.100 36.3 12 1.8         269.36
2018-Jul-12 17:01:40 1007.900 36.4 13 2.9         269.36
2018-Jul-12 18:01:55 1007.700 36.2 17 6.8         269.36
2018-Jul-12 19:01:51 1007.500 31.9 29 11.6         269.36
2018-Jul-12 20:01:52 1008.200 29.2 36 12.5         269.36
2018-Jul-12 21:01:38 1008.500 26.1 42 12.2         269.36
2018-Jul-12 22:01:40 1009.000 24.1 46 11.7         269.36
2018-Jul-12 23:02:01 1009.700 22.8 53 12.7         269.36

Temperatura Máxima:36°    Temperatura Mínima:11°
Presión Máxima:1009.700 Hpa    Presión Mínima:1007.500 Hpa


Volver